createdAt,value
2018-05-21T00:00:32.154Z,1020.47
2018-05-21T00:01:32.146Z,1020.47
2018-05-21T00:02:32.142Z,1020.41
2018-05-21T00:03:32.140Z,1020.44
2018-05-21T00:04:32.136Z,1020.41
2018-05-21T00:05:32.134Z,1020.39
2018-05-21T00:06:32.132Z,1020.40
2018-05-21T00:07:32.127Z,1020.41
2018-05-21T00:08:32.127Z,1020.41
2018-05-21T00:09:32.126Z,1020.41
2018-05-21T00:10:32.121Z,1020.41
2018-05-21T00:11:32.117Z,1020.37
2018-05-21T00:12:32.115Z,1020.33
2018-05-21T00:13:32.111Z,1020.32
2018-05-21T00:14:32.111Z,1020.34
2018-05-21T00:15:32.112Z,1020.35
2018-05-21T00:16:32.104Z,1020.33
2018-05-21T00:17:32.100Z,1020.31
2018-05-21T00:18:32.098Z,1020.30
2018-05-21T00:19:32.094Z,1020.33
2018-05-21T00:20:32.092Z,1020.30
2018-05-21T00:21:32.090Z,1020.27
2018-05-21T00:22:32.086Z,1020.25
2018-05-21T00:23:32.082Z,1020.23
2018-05-21T00:24:32.082Z,1020.25
2018-05-21T00:25:32.081Z,1020.21
2018-05-21T00:26:32.077Z,1020.24
2018-05-21T00:27:32.069Z,1020.21
2018-05-21T00:28:32.072Z,1020.21
2018-05-21T00:29:32.066Z,1020.19
2018-05-21T00:30:32.060Z,1020.16
2018-05-21T00:31:32.061Z,1020.16
2018-05-21T00:32:32.056Z,1020.12
2018-05-21T00:33:32.052Z,1020.16
2018-05-21T00:34:32.054Z,1020.13
2018-05-21T00:35:32.047Z,1020.16
2018-05-21T00:36:32.046Z,1020.13
2018-05-21T00:37:32.041Z,1020.21
2018-05-21T00:38:32.042Z,1020.21
2018-05-21T00:39:32.037Z,1020.18
2018-05-21T00:40:32.033Z,1020.17
2018-05-21T00:41:32.033Z,1020.23
2018-05-21T00:42:32.034Z,1020.21
2018-05-21T00:43:32.024Z,1020.20
2018-05-21T00:44:32.022Z,1020.18
2018-05-21T00:45:32.021Z,1020.16
2018-05-21T00:46:32.024Z,1020.17
2018-05-21T00:47:32.011Z,1020.19
2018-05-21T00:48:32.010Z,1020.22
2018-05-21T00:49:32.007Z,1020.23
2018-05-21T00:50:32.008Z,1020.25
2018-05-21T00:51:32.001Z,1020.20
2018-05-21T00:52:31.999Z,1020.23
2018-05-21T00:53:31.994Z,1020.24
2018-05-21T00:54:31.994Z,1020.26
2018-05-21T00:55:31.986Z,1020.22
2018-05-21T00:56:31.984Z,1020.19
2018-05-21T00:57:31.982Z,1020.22
2018-05-21T00:58:32.028Z,1020.22
2018-05-21T00:59:31.976Z,1020.25
2018-05-21T01:00:31.973Z,1020.25
2018-05-21T01:01:31.972Z,1020.24
2018-05-21T01:02:31.969Z,1020.25
2018-05-21T01:03:31.965Z,1020.23
2018-05-21T01:04:31.969Z,1020.23
2018-05-21T01:05:31.962Z,1020.21
2018-05-21T01:06:31.959Z,1020.18
2018-05-21T01:07:31.949Z,1020.23
2018-05-21T01:08:31.949Z,1020.25
2018-05-21T01:09:31.945Z,1020.23
2018-05-21T01:10:31.942Z,1020.24
2018-05-21T01:11:31.938Z,1020.25
2018-05-21T01:12:31.936Z,1020.22
2018-05-21T01:13:31.934Z,1020.25
2018-05-21T01:14:31.927Z,1020.23
2018-05-21T01:15:31.924Z,1020.22
2018-05-21T01:16:31.923Z,1020.18
2018-05-21T01:17:31.919Z,1020.22
2018-05-21T01:18:31.918Z,1020.19
2018-05-21T01:19:31.911Z,1020.19
2018-05-21T01:20:31.909Z,1020.18
2018-05-21T01:21:31.905Z,1020.20
2018-05-21T01:22:31.903Z,1020.15
2018-05-21T01:23:31.901Z,1020.15
2018-05-21T01:24:31.891Z,1020.16
2018-05-21T01:25:31.891Z,1020.12
2018-05-21T01:26:31.889Z,1020.15
2018-05-21T01:27:31.885Z,1020.16
2018-05-21T01:28:31.889Z,1020.15
2018-05-21T01:29:31.936Z,1020.20
2018-05-21T01:30:31.876Z,1020.19
2018-05-21T01:31:31.872Z,1020.20
2018-05-21T01:32:31.868Z,1020.22
2018-05-21T01:33:31.864Z,1020.21
2018-05-21T01:34:31.862Z,1020.22
2018-05-21T01:35:31.857Z,1020.25
2018-05-21T01:36:31.855Z,1020.29
2018-05-21T01:37:31.847Z,1020.30
2018-05-21T01:38:31.847Z,1020.29
2018-05-21T01:39:31.847Z,1020.33
2018-05-21T01:40:31.841Z,1020.27
2018-05-21T01:41:31.839Z,1020.32
2018-05-21T01:42:31.838Z,1020.31
2018-05-21T01:43:31.830Z,1020.33
2018-05-21T01:44:31.828Z,1020.34
2018-05-21T01:45:31.822Z,1020.35
2018-05-21T01:46:31.819Z,1020.36
2018-05-21T01:47:31.814Z,1020.40
2018-05-21T01:48:31.819Z,1020.39
2018-05-21T01:49:31.807Z,1020.35
2018-05-21T01:50:31.808Z,1020.36
2018-05-21T01:51:31.802Z,1020.40
2018-05-21T01:52:31.796Z,1020.40
2018-05-21T01:53:31.793Z,1020.35
2018-05-21T01:54:31.793Z,1020.32
2018-05-21T01:55:31.784Z,1020.29
2018-05-21T01:56:31.782Z,1020.28
2018-05-21T01:57:31.780Z,1020.32
2018-05-21T01:58:31.773Z,1020.29
2018-05-21T01:59:31.769Z,1020.27
2018-05-21T02:00:31.766Z,1020.28
2018-05-21T02:01:31.763Z,1020.30
2018-05-21T02:02:31.759Z,1020.25
2018-05-21T02:03:31.757Z,1020.26
2018-05-21T02:04:31.749Z,1020.23
2018-05-21T02:05:31.747Z,1020.23
2018-05-21T02:06:31.743Z,1020.24
2018-05-21T02:07:31.741Z,1020.19
2018-05-21T02:08:31.769Z,1020.21
2018-05-21T02:09:31.730Z,1020.20
2018-05-21T02:10:31.729Z,1020.16
2018-05-21T02:11:31.724Z,1020.16
2018-05-21T02:12:31.720Z,1020.14
2018-05-21T02:13:31.715Z,1020.15
2018-05-21T02:14:31.711Z,1020.13
2018-05-21T02:15:31.708Z,1020.10
2018-05-21T02:16:31.702Z,1020.14
2018-05-21T02:17:31.699Z,1020.11
2018-05-21T02:18:31.699Z,1020.13
2018-05-21T02:19:31.695Z,1020.10
2018-05-21T02:20:31.688Z,1020.09
2018-05-21T02:21:31.685Z,1020.11
2018-05-21T02:22:31.681Z,1020.09
2018-05-21T02:23:31.673Z,1020.09
2018-05-21T02:24:31.672Z,1020.07
2018-05-21T02:25:31.673Z,1020.06
2018-05-21T02:26:31.667Z,1020.08
2018-05-21T02:27:31.663Z,1020.06
2018-05-21T02:28:31.656Z,1020.07
2018-05-21T02:29:31.653Z,1020.06
2018-05-21T02:30:31.655Z,1020.01
2018-05-21T02:31:31.642Z,1019.96
2018-05-21T02:32:31.641Z,1020.00
2018-05-21T02:33:31.638Z,1019.97
2018-05-21T02:34:31.633Z,1019.96
2018-05-21T02:35:31.633Z,1019.97
2018-05-21T02:36:31.624Z,1020.01
2018-05-21T02:37:31.620Z,1020.03
2018-05-21T02:38:31.618Z,1020.00
2018-05-21T02:39:31.616Z,1020.01
2018-05-21T02:40:31.614Z,1019.98
2018-05-21T02:41:31.604Z,1019.93
2018-05-21T02:42:31.600Z,1019.97
2018-05-21T02:43:31.597Z,1020.00
2018-05-21T02:44:31.590Z,1019.99
2018-05-21T02:45:31.592Z,1019.99
2018-05-21T02:46:31.585Z,1019.99
2018-05-21T02:47:31.581Z,1020.01
2018-05-21T02:48:31.576Z,1019.99
2018-05-21T02:49:31.574Z,1020.01
2018-05-21T02:50:31.572Z,1020.01
2018-05-21T02:51:31.566Z,1019.96
2018-05-21T02:52:31.558Z,1019.97
2018-05-21T02:53:31.557Z,1020.05
2018-05-21T02:54:31.554Z,1020.09
2018-05-21T02:55:31.547Z,1020.01
2018-05-21T02:56:31.545Z,1020.03
2018-05-21T02:57:31.541Z,1020.08
2018-05-21T02:58:31.537Z,1020.10
2018-05-21T02:59:31.531Z,1020.05
2018-05-21T03:00:31.534Z,1020.09
2018-05-21T03:01:31.524Z,1020.11
2018-05-21T03:02:31.520Z,1020.07
2018-05-21T03:03:31.515Z,1020.08
2018-05-21T03:04:31.510Z,1020.03
2018-05-21T03:05:31.511Z,1020.03
2018-05-21T03:06:31.502Z,1020.02
2018-05-21T03:07:31.498Z,1020.02
2018-05-21T03:08:31.500Z,1019.99
2018-05-21T03:09:31.493Z,1019.99
2018-05-21T03:10:31.485Z,1019.96
2018-05-21T03:11:31.487Z,1019.96
2018-05-21T03:12:31.479Z,1019.94
2018-05-21T03:13:31.472Z,1019.97
2018-05-21T03:14:31.469Z,1019.97
2018-05-21T03:15:31.463Z,1019.98
2018-05-21T03:16:31.462Z,1019.95
2018-05-21T03:17:31.463Z,1019.98
2018-05-21T03:18:31.451Z,1020.03
2018-05-21T03:19:31.447Z,1020.00
2018-05-21T03:20:31.446Z,1020.02
2018-05-21T03:21:31.441Z,1020.03
2018-05-21T03:22:31.440Z,1020.02
2018-05-21T03:23:31.441Z,1020.04
2018-05-21T03:24:31.427Z,1020.00
2018-05-21T03:25:31.428Z,1020.01
2018-05-21T03:26:31.420Z,1020.06
2018-05-21T03:27:31.429Z,1020.04
2018-05-21T03:28:31.411Z,1020.05
2018-05-21T03:29:31.407Z,1020.03
2018-05-21T03:30:31.408Z,1020.00
2018-05-21T03:31:31.397Z,1020.06
2018-05-21T03:32:31.393Z,1020.05
2018-05-21T03:33:31.391Z,1020.09
2018-05-21T03:34:31.388Z,1020.07
2018-05-21T03:35:31.382Z,1020.00
2018-05-21T03:36:31.379Z,1020.03
2018-05-21T03:37:31.373Z,1020.06
2018-05-21T03:38:31.370Z,1020.04
2018-05-21T03:39:31.366Z,1020.05
2018-05-21T03:40:31.360Z,1020.06
2018-05-21T03:41:31.359Z,1020.06
2018-05-21T03:42:31.352Z,1020.07
2018-05-21T03:43:31.348Z,1020.07
2018-05-21T03:44:31.346Z,1020.07
2018-05-21T03:45:31.340Z,1020.08
2018-05-21T03:46:31.336Z,1020.08
2018-05-21T03:47:31.335Z,1020.11
2018-05-21T03:48:31.324Z,1020.12
2018-05-21T03:49:31.324Z,1020.16
2018-05-21T03:50:31.320Z,1020.13
2018-05-21T03:51:31.316Z,1020.14
2018-05-21T03:52:31.312Z,1020.11
2018-05-21T03:53:31.309Z,1020.14
2018-05-21T03:54:31.305Z,1020.14
2018-05-21T03:55:31.299Z,1020.14
2018-05-21T03:56:31.297Z,1020.15
2018-05-21T03:57:31.292Z,1020.13
2018-05-21T03:58:31.290Z,1020.13
2018-05-21T03:59:31.284Z,1020.13
2018-05-21T04:00:31.282Z,1020.19
2018-05-21T04:01:31.277Z,1020.17
2018-05-21T04:02:31.277Z,1020.14
2018-05-21T04:03:31.272Z,1020.12
2018-05-21T04:04:31.276Z,1020.14
2018-05-21T04:05:31.263Z,1020.14
2018-05-21T04:06:31.261Z,1020.13
2018-05-21T04:07:31.259Z,1020.23
2018-05-21T04:08:31.253Z,1020.22
2018-05-21T04:09:31.252Z,1020.25
2018-05-21T04:10:31.250Z,1020.27
2018-05-21T04:11:31.245Z,1020.25
2018-05-21T04:12:31.242Z,1020.25
2018-05-21T04:13:31.238Z,1020.28
2018-05-21T04:14:31.238Z,1020.28
2018-05-21T04:15:31.234Z,1020.28
2018-05-21T04:16:31.235Z,1020.26
2018-05-21T04:17:31.232Z,1020.29
2018-05-21T04:18:31.227Z,1020.23
2018-05-21T04:19:31.222Z,1020.25
2018-05-21T04:20:31.220Z,1020.24
2018-05-21T04:21:31.216Z,1020.28
2018-05-21T04:22:31.215Z,1020.26
2018-05-21T04:23:31.212Z,1020.24
2018-05-21T04:24:31.210Z,1020.26
2018-05-21T04:25:31.287Z,1020.26
2018-05-21T04:26:31.204Z,1020.26
2018-05-21T04:27:31.202Z,1020.29
2018-05-21T04:28:31.205Z,1020.29
2018-05-21T04:29:31.194Z,1020.32
2018-05-21T04:30:31.197Z,1020.33
2018-05-21T04:31:31.192Z,1020.34
2018-05-21T04:32:31.191Z,1020.38
2018-05-21T04:33:31.189Z,1020.35
2018-05-21T04:34:31.199Z,1020.33
2018-05-21T04:35:31.219Z,1020.33
2018-05-21T04:36:31.235Z,1020.33
2018-05-21T04:37:31.182Z,1020.32
2018-05-21T04:38:31.180Z,1020.33
2018-05-21T04:39:31.178Z,1020.31
2018-05-21T04:40:31.180Z,1020.35
2018-05-21T04:41:31.174Z,1020.31
2018-05-21T04:42:31.174Z,1020.34
2018-05-21T04:43:31.172Z,1020.37
2018-05-21T04:44:31.169Z,1020.41
2018-05-21T04:45:31.169Z,1020.38
2018-05-21T04:46:31.168Z,1020.41
2018-05-21T04:47:31.166Z,1020.40
2018-05-21T04:48:31.165Z,1020.44
2018-05-21T04:49:31.162Z,1020.41
2018-05-21T04:50:31.228Z,1020.42
2018-05-21T04:51:31.161Z,1020.46
2018-05-21T04:52:31.159Z,1020.42
2018-05-21T04:53:31.159Z,1020.44
2018-05-21T04:54:31.160Z,1020.40
2018-05-21T04:55:31.155Z,1020.43
2018-05-21T04:56:31.155Z,1020.42
2018-05-21T04:57:31.154Z,1020.45
2018-05-21T04:58:31.154Z,1020.45
2018-05-21T04:59:31.153Z,1020.44
2018-05-21T05:00:31.154Z,1020.41
2018-05-21T05:01:31.153Z,1020.41
2018-05-21T05:02:31.151Z,1020.37
2018-05-21T05:03:31.149Z,1020.38
2018-05-21T05:04:31.151Z,1020.39
2018-05-21T05:05:31.151Z,1020.40
2018-05-21T05:06:31.151Z,1020.38
2018-05-21T05:07:31.150Z,1020.36
2018-05-21T05:08:31.157Z,1020.39
2018-05-21T05:09:31.151Z,1020.37
2018-05-21T05:10:31.152Z,1020.35
2018-05-21T05:11:31.146Z,1020.31
2018-05-21T05:12:31.152Z,1020.32
2018-05-21T05:13:31.148Z,1020.37
2018-05-21T05:14:31.151Z,1020.31
2018-05-21T05:15:31.151Z,1020.28
2018-05-21T05:16:31.149Z,1020.28
2018-05-21T05:17:31.159Z,1020.31
2018-05-21T05:18:31.154Z,1020.24
2018-05-21T05:19:31.152Z,1020.28
2018-05-21T05:20:31.149Z,1020.26
2018-05-21T05:21:31.150Z,1020.26
2018-05-21T05:22:31.153Z,1020.27
2018-05-21T05:23:31.152Z,1020.23
2018-05-21T05:24:31.147Z,1020.29
2018-05-21T05:25:31.154Z,1020.29
2018-05-21T05:26:31.176Z,1020.30
2018-05-21T05:27:31.149Z,1020.29
2018-05-21T05:28:31.150Z,1020.25
2018-05-21T05:29:31.152Z,1020.21
2018-05-21T05:30:31.154Z,1020.27
2018-05-21T05:31:31.151Z,1020.23
2018-05-21T05:32:31.151Z,1020.24
2018-05-21T05:33:31.152Z,1020.23
2018-05-21T05:34:31.152Z,1020.24
2018-05-21T05:35:31.154Z,1020.20
2018-05-21T05:36:31.153Z,1020.18
2018-05-21T05:37:31.153Z,1020.17
2018-05-21T05:38:31.155Z,1020.13
2018-05-21T05:39:31.154Z,1020.14
2018-05-21T05:40:31.155Z,1020.06
2018-05-21T05:41:31.235Z,1020.14
2018-05-21T05:42:31.155Z,1020.15
2018-05-21T05:43:31.153Z,1020.10
2018-05-21T05:44:31.155Z,1020.12
2018-05-21T05:45:31.155Z,1020.08
2018-05-21T05:46:31.158Z,1020.10
2018-05-21T05:47:31.156Z,1020.06
2018-05-21T05:48:31.156Z,1020.12
2018-05-21T05:49:31.157Z,1020.08
2018-05-21T05:50:31.157Z,1020.08
2018-05-21T05:51:31.161Z,1020.06
2018-05-21T05:52:31.159Z,1020.10
2018-05-21T05:53:31.160Z,1020.11
2018-05-21T05:54:31.164Z,1020.13
2018-05-21T05:55:31.161Z,1020.10
2018-05-21T05:56:31.164Z,1020.12
2018-05-21T05:57:31.162Z,1020.10
2018-05-21T05:58:31.167Z,1020.14
2018-05-21T05:59:31.168Z,1020.15
2018-05-21T06:00:31.166Z,1020.13
2018-05-21T06:01:31.172Z,1020.06
2018-05-21T06:02:31.167Z,1020.10
2018-05-21T06:03:31.216Z,1020.11
2018-05-21T06:04:31.170Z,1020.09
2018-05-21T06:05:31.173Z,1020.09
2018-05-21T06:06:31.174Z,1020.12
2018-05-21T06:07:31.175Z,1020.12
2018-05-21T06:08:31.175Z,1020.10
2018-05-21T06:09:31.178Z,1020.11
2018-05-21T06:10:31.181Z,1020.17
2018-05-21T06:11:31.184Z,1020.10
2018-05-21T06:12:31.181Z,1020.09
2018-05-21T06:13:31.184Z,1020.09
2018-05-21T06:14:31.185Z,1020.11
2018-05-21T06:15:31.181Z,1020.09
2018-05-21T06:16:31.191Z,1020.10
2018-05-21T06:17:31.189Z,1020.06
2018-05-21T06:18:31.191Z,1020.04
2018-05-21T06:19:31.193Z,1020.02
2018-05-21T06:20:31.193Z,1020.00
2018-05-21T06:21:31.195Z,1020.01
2018-05-21T06:22:31.200Z,1020.00
2018-05-21T06:23:31.198Z,1020.04
2018-05-21T06:24:31.202Z,1019.99
2018-05-21T06:25:31.203Z,1020.00
2018-05-21T06:26:31.205Z,1020.00
2018-05-21T06:27:31.206Z,1019.97
2018-05-21T06:28:31.210Z,1019.92
2018-05-21T06:29:31.210Z,1019.96
2018-05-21T06:30:31.212Z,1019.97
2018-05-21T06:31:31.215Z,1019.95
2018-05-21T06:32:31.217Z,1019.96
2018-05-21T06:33:31.219Z,1019.97
2018-05-21T06:34:31.263Z,1019.94
2018-05-21T06:35:31.223Z,1019.99
2018-05-21T06:36:31.227Z,1019.94
2018-05-21T06:37:31.227Z,1019.94
2018-05-21T06:38:31.234Z,1019.98
2018-05-21T06:39:31.231Z,1019.93
2018-05-21T06:40:31.234Z,1019.98
2018-05-21T06:41:31.238Z,1019.96
2018-05-21T06:42:31.242Z,1019.96
2018-05-21T06:43:31.241Z,1019.94
2018-05-21T06:44:31.268Z,1019.96
2018-05-21T06:45:31.253Z,1019.93
2018-05-21T06:46:31.251Z,1019.96
2018-05-21T06:47:31.253Z,1019.96
2018-05-21T06:48:31.253Z,1019.95
2018-05-21T06:49:31.258Z,1019.90
2018-05-21T06:50:31.263Z,1019.90
2018-05-21T06:51:31.265Z,1019.88
2018-05-21T06:52:31.268Z,1019.91
2018-05-21T06:53:31.272Z,1019.88
2018-05-21T06:54:31.273Z,1019.89
2018-05-21T06:55:31.278Z,1019.89
2018-05-21T06:56:31.279Z,1019.86
2018-05-21T06:57:31.283Z,1019.91
2018-05-21T06:58:31.288Z,1019.90
2018-05-21T06:59:31.292Z,1019.86
2018-05-21T07:00:31.295Z,1019.91
2018-05-21T07:01:31.299Z,1019.87
2018-05-21T07:02:31.304Z,1019.88
2018-05-21T07:03:31.306Z,1019.88
2018-05-21T07:04:31.309Z,1019.85
2018-05-21T07:05:31.315Z,1019.88
2018-05-21T07:06:31.326Z,1019.82
2018-05-21T07:07:31.322Z,1019.81
2018-05-21T07:08:31.328Z,1019.80
2018-05-21T07:09:31.333Z,1019.80
2018-05-21T07:10:31.337Z,1019.80
2018-05-21T07:11:31.341Z,1019.79
2018-05-21T07:12:31.346Z,1019.80
2018-05-21T07:13:31.352Z,1019.75
2018-05-21T07:14:31.357Z,1019.74
2018-05-21T07:15:31.361Z,1019.76
2018-05-21T07:16:31.365Z,1019.74
2018-05-21T07:17:31.369Z,1019.72
2018-05-21T07:18:31.379Z,1019.72
2018-05-21T07:19:31.377Z,1019.68
2018-05-21T07:20:31.384Z,1019.71
2018-05-21T07:21:31.389Z,1019.67
2018-05-21T07:22:31.398Z,1019.64
2018-05-21T07:23:31.412Z,1019.64
2018-05-21T07:24:31.473Z,1019.62
2018-05-21T07:25:31.412Z,1019.61
2018-05-21T07:26:31.424Z,1019.61
2018-05-21T07:27:31.426Z,1019.58
2018-05-21T07:28:31.426Z,1019.59
2018-05-21T07:29:31.435Z,1019.59
2018-05-21T07:30:31.442Z,1019.58
2018-05-21T07:31:31.519Z,1019.57
2018-05-21T07:32:31.447Z,1019.54
2018-05-21T07:33:31.456Z,1019.53
2018-05-21T07:34:31.461Z,1019.54
2018-05-21T07:35:31.465Z,1019.51
2018-05-21T07:36:31.495Z,1019.51
2018-05-21T07:37:31.479Z,1019.49
2018-05-21T07:38:31.479Z,1019.49
2018-05-21T07:39:31.497Z,1019.50
2018-05-21T07:40:31.497Z,1019.48
2018-05-21T07:41:31.500Z,1019.49
2018-05-21T07:42:31.508Z,1019.48
2018-05-21T07:43:31.515Z,1019.55
2018-05-21T07:44:31.520Z,1019.48
2018-05-21T07:45:31.528Z,1019.49
2018-05-21T07:46:31.583Z,1019.52
2018-05-21T07:47:31.540Z,1019.47
2018-05-21T07:48:31.545Z,1019.47
2018-05-21T07:49:31.554Z,1019.49
2018-05-21T07:50:31.562Z,1019.46
2018-05-21T07:51:31.590Z,1019.45
2018-05-21T07:52:31.574Z,1019.47
2018-05-21T07:53:31.582Z,1019.53
2018-05-21T07:54:31.588Z,1019.43
2018-05-21T07:55:31.594Z,1019.42
2018-05-21T07:56:31.604Z,1019.39
2018-05-21T07:57:31.612Z,1019.46
2018-05-21T07:58:31.619Z,1019.40
2018-05-21T07:59:31.624Z,1019.37
2018-05-21T08:00:31.630Z,1019.38
2018-05-21T08:01:31.638Z,1019.36
2018-05-21T08:02:31.652Z,1019.35
2018-05-21T08:03:31.650Z,1019.38
2018-05-21T08:04:31.658Z,1019.31
2018-05-21T08:05:31.667Z,1019.31
2018-05-21T08:06:31.676Z,1019.28
2018-05-21T08:07:31.677Z,1019.35
2018-05-21T08:08:31.693Z,1019.31
2018-05-21T08:09:31.697Z,1019.32
2018-05-21T08:10:31.704Z,1019.33
2018-05-21T08:11:31.711Z,1019.30
2018-05-21T08:12:31.715Z,1019.28
2018-05-21T08:13:31.726Z,1019.33
2018-05-21T08:14:31.832Z,1019.29
2018-05-21T08:15:31.743Z,1019.34
2018-05-21T08:16:31.751Z,1019.33
2018-05-21T08:17:31.750Z,1019.27
2018-05-21T08:18:31.760Z,1019.25
2018-05-21T08:19:31.776Z,1019.31
2018-05-21T08:20:31.783Z,1019.26
2018-05-21T08:21:31.790Z,1019.28
2018-05-21T08:22:31.795Z,1019.29
2018-05-21T08:23:31.809Z,1019.25
2018-05-21T08:24:31.808Z,1019.25
2018-05-21T08:25:31.817Z,1019.21
2018-05-21T08:26:31.825Z,1019.15
2018-05-21T08:27:31.834Z,1019.21
2018-05-21T08:28:31.842Z,1019.22
2018-05-21T08:29:31.850Z,1019.15
2018-05-21T08:30:31.855Z,1019.11
2018-05-21T08:31:31.867Z,1019.13
2018-05-21T08:32:31.891Z,1019.16
2018-05-21T08:33:31.881Z,1019.15
2018-05-21T08:34:31.888Z,1019.17
2018-05-21T08:35:31.896Z,1019.10
2018-05-21T08:36:31.906Z,1019.05
2018-05-21T08:37:31.911Z,1019.10
2018-05-21T08:38:31.921Z,1019.11
2018-05-21T08:39:31.929Z,1019.13
2018-05-21T08:40:31.939Z,1019.12
2018-05-21T08:41:31.947Z,1019.08
2018-05-21T08:42:31.951Z,1019.03
2018-05-21T08:43:31.965Z,1019.02
2018-05-21T08:44:31.972Z,1018.96
2018-05-21T08:45:31.981Z,1019.01
2018-05-21T08:46:31.991Z,1019.00
2018-05-21T08:47:32.000Z,1019.14
2018-05-21T08:48:32.122Z,1019.02
2018-05-21T08:49:32.022Z,1018.96
2018-05-21T08:50:32.019Z,1019.06
2018-05-21T08:51:32.030Z,1018.96
2018-05-21T08:52:32.039Z,1018.98
2018-05-21T08:53:32.048Z,1018.96
2018-05-21T08:54:32.055Z,1018.86
2018-05-21T08:55:32.062Z,1018.84
2018-05-21T08:56:32.217Z,1018.71
2018-05-21T08:57:32.079Z,1018.69
2018-05-21T08:58:32.086Z,1018.71
2018-05-21T08:59:32.099Z,1018.70
2018-05-21T09:00:32.191Z,1018.63
2018-05-21T09:01:32.111Z,1018.60
2018-05-21T09:02:32.119Z,1018.69
2018-05-21T09:03:32.127Z,1018.60
2018-05-21T09:04:32.130Z,1018.61
2018-05-21T09:05:32.136Z,1018.57
2018-05-21T09:06:32.141Z,1018.57
2018-05-21T09:07:32.193Z,1018.56
2018-05-21T09:08:32.161Z,1018.53
2018-05-21T09:09:32.158Z,1018.54
2018-05-21T09:10:32.163Z,1018.48
2018-05-21T09:11:32.167Z,1018.46
2018-05-21T09:12:32.192Z,1018.48
2018-05-21T09:13:32.179Z,1018.47
2018-05-21T09:14:32.183Z,1018.47
2018-05-21T09:15:32.185Z,1018.39
2018-05-21T09:16:32.239Z,1018.39
2018-05-21T09:17:32.197Z,1018.37
2018-05-21T09:18:32.200Z,1018.44
2018-05-21T09:19:32.203Z,1018.28
2018-05-21T09:20:32.207Z,1018.43
2018-05-21T09:21:32.214Z,1018.51
2018-05-21T09:22:32.220Z,1018.54
2018-05-21T09:23:32.216Z,1018.43
2018-05-21T09:24:32.222Z,1018.37
2018-05-21T09:25:32.224Z,1018.34
2018-05-21T09:26:32.228Z,1018.37
2018-05-21T09:27:32.231Z,1018.38
2018-05-21T09:28:32.234Z,1018.38
2018-05-21T09:29:32.237Z,1018.29
2018-05-21T09:30:32.239Z,1018.27
2018-05-21T09:31:32.243Z,1018.28
2018-05-21T09:32:32.310Z,1018.17
2018-05-21T09:33:32.250Z,1018.24
2018-05-21T09:34:32.252Z,1018.38
2018-05-21T09:35:32.256Z,1018.26
2018-05-21T09:36:32.258Z,1018.33
2018-05-21T09:37:32.263Z,1018.35
2018-05-21T09:38:32.264Z,1018.24
2018-05-21T09:39:32.272Z,1018.25
2018-05-21T09:40:32.269Z,1018.35
2018-05-21T09:41:32.272Z,1018.22
2018-05-21T09:42:32.276Z,1018.26
2018-05-21T09:43:32.278Z,1018.23
2018-05-21T09:44:32.279Z,1018.23
2018-05-21T09:45:32.283Z,1018.22
2018-05-21T09:46:32.288Z,1018.28
2018-05-21T09:47:32.290Z,1018.30
2018-05-21T09:48:32.293Z,1018.28
2018-05-21T09:49:32.294Z,1018.16
2018-05-21T09:50:32.299Z,1018.34
2018-05-21T09:51:32.301Z,1018.29
2018-05-21T09:52:32.304Z,1018.21
2018-05-21T09:53:32.307Z,1018.17
2018-05-21T09:54:32.312Z,1018.18
2018-05-21T09:55:32.309Z,1018.18
2018-05-21T09:56:32.313Z,1018.06
2018-05-21T09:57:32.317Z,1018.03
2018-05-21T09:58:32.320Z,1018.03
2018-05-21T09:59:32.321Z,1018.05
2018-05-21T10:00:32.325Z,1018.06
2018-05-21T10:01:32.326Z,1018.09
2018-05-21T10:02:32.337Z,1018.00
2018-05-21T10:03:32.336Z,1018.02
2018-05-21T10:04:32.333Z,1018.02
2018-05-21T10:05:32.338Z,1018.04
2018-05-21T10:06:32.339Z,1017.92
2018-05-21T10:07:32.342Z,1018.05
2018-05-21T10:08:32.347Z,1018.06
2018-05-21T10:09:32.346Z,1018.02
2018-05-21T10:10:32.349Z,1018.00
2018-05-21T10:11:32.350Z,1017.96
2018-05-21T10:12:32.353Z,1018.06
2018-05-21T10:13:32.356Z,1017.97
2018-05-21T10:14:32.361Z,1017.98
2018-05-21T10:15:32.358Z,1017.93
2018-05-21T10:16:32.383Z,1018.02
2018-05-21T10:17:32.365Z,1017.90
2018-05-21T10:18:32.367Z,1017.92
2018-05-21T10:19:32.453Z,1017.78
2018-05-21T10:20:32.374Z,1017.83
2018-05-21T10:21:32.377Z,1017.90
2018-05-21T10:22:32.378Z,1017.83
2018-05-21T10:23:32.387Z,1017.83
2018-05-21T10:24:32.385Z,1017.80
2018-05-21T10:25:32.389Z,1017.75
2018-05-21T10:26:32.389Z,1017.82
2018-05-21T10:27:32.391Z,1017.80
2018-05-21T10:28:32.395Z,1017.68
2018-05-21T10:29:32.399Z,1017.79
2018-05-21T10:30:32.400Z,1017.72
2018-05-21T10:31:32.402Z,1017.66
2018-05-21T10:32:32.403Z,1017.74
2018-05-21T10:33:32.406Z,1017.52
2018-05-21T10:34:32.413Z,1017.64
2018-05-21T10:35:32.418Z,1017.57
2018-05-21T10:36:32.418Z,1017.56
2018-05-21T10:37:32.419Z,1017.53
2018-05-21T10:38:32.422Z,1017.54
2018-05-21T10:39:32.424Z,1017.52
2018-05-21T10:40:32.428Z,1017.48
2018-05-21T10:41:32.432Z,1017.50
2018-05-21T10:42:32.433Z,1017.54
2018-05-21T10:43:32.434Z,1017.47
2018-05-21T10:44:32.439Z,1017.53
2018-05-21T10:45:32.457Z,1017.68
2018-05-21T10:46:32.445Z,1017.52
2018-05-21T10:47:32.445Z,1017.50
2018-05-21T10:48:32.448Z,1017.45
2018-05-21T10:49:32.454Z,1017.47
2018-05-21T10:50:32.455Z,1017.38
2018-05-21T10:51:32.453Z,1017.32
2018-05-21T10:52:32.458Z,1017.32
2018-05-21T10:53:32.460Z,1017.29
2018-05-21T10:54:32.463Z,1017.29
2018-05-21T10:55:32.467Z,1017.23
2018-05-21T10:56:32.468Z,1017.28
2018-05-21T10:57:32.543Z,1017.24
2018-05-21T10:58:32.471Z,1017.17
2018-05-21T10:59:32.476Z,1017.20
2018-05-21T11:00:32.486Z,1017.19
2018-05-21T11:01:32.488Z,1017.29
2018-05-21T11:02:32.481Z,1017.16
2018-05-21T11:03:32.494Z,1017.22
2018-05-21T11:04:32.506Z,1017.20
2018-05-21T11:05:32.496Z,1017.22
2018-05-21T11:06:32.497Z,1017.20
2018-05-21T11:07:32.497Z,1017.15
2018-05-21T11:08:32.500Z,1017.20
2018-05-21T11:09:32.505Z,1017.15
2018-05-21T11:10:32.505Z,1017.12
2018-05-21T11:11:32.508Z,1017.12
2018-05-21T11:12:32.512Z,1017.12
2018-05-21T11:13:32.530Z,1017.07
2018-05-21T11:14:32.517Z,1017.09
2018-05-21T11:15:32.520Z,1017.14
2018-05-21T11:16:32.523Z,1017.05
2018-05-21T11:17:32.527Z,1017.09
2018-05-21T11:18:32.535Z,1016.99
2018-05-21T11:19:32.535Z,1017.14
2018-05-21T11:20:32.538Z,1017.23
2018-05-21T11:21:32.541Z,1017.11
2018-05-21T11:22:32.541Z,1017.09
2018-05-21T11:23:32.544Z,1017.04
2018-05-21T11:24:32.628Z,1017.02
2018-05-21T11:25:32.549Z,1017.07
2018-05-21T11:26:32.554Z,1017.01
2018-05-21T11:27:32.569Z,1016.96
2018-05-21T11:28:32.558Z,1016.91
2018-05-21T11:29:32.561Z,1016.89
2018-05-21T11:30:32.564Z,1017.00
2018-05-21T11:31:32.563Z,1016.90
2018-05-21T11:32:32.569Z,1016.94
2018-05-21T11:33:32.570Z,1016.93
2018-05-21T11:34:32.577Z,1016.92
2018-05-21T11:35:32.577Z,1016.92
2018-05-21T11:36:32.579Z,1016.86
2018-05-21T11:37:32.584Z,1016.84
2018-05-21T11:38:32.586Z,1016.74
2018-05-21T11:39:32.588Z,1016.74
2018-05-21T11:40:32.592Z,1016.82
2018-05-21T11:41:32.593Z,1016.79
2018-05-21T11:42:32.599Z,1016.78
2018-05-21T11:43:32.600Z,1016.76
2018-05-21T11:44:32.603Z,1016.77
2018-05-21T11:45:32.604Z,1016.75
2018-05-21T11:46:32.609Z,1016.74
2018-05-21T11:47:32.610Z,1016.82
2018-05-21T11:48:32.612Z,1016.69
2018-05-21T11:49:32.617Z,1016.66
2018-05-21T11:50:32.635Z,1016.62
2018-05-21T11:51:32.623Z,1016.64
2018-05-21T11:52:32.630Z,1016.67
2018-05-21T11:53:32.629Z,1016.50
2018-05-21T11:54:32.631Z,1016.62
2018-05-21T11:55:32.631Z,1016.53
2018-05-21T11:56:32.639Z,1016.48
2018-05-21T11:57:32.639Z,1016.51
2018-05-21T11:58:32.642Z,1016.42
2018-05-21T11:59:32.650Z,1016.52
2018-05-21T12:00:32.649Z,1016.50
2018-05-21T12:01:32.653Z,1016.45
2018-05-21T12:02:32.703Z,1016.45
2018-05-21T12:03:32.657Z,1016.40
2018-05-21T12:04:32.659Z,1016.35
2018-05-21T12:05:32.665Z,1016.29